createdAt,value
2022-11-29T00:01:27.751Z,7.25
2022-11-29T00:03:55.160Z,8.73
2022-11-29T00:06:28.034Z,8.45
2022-11-29T00:08:56.809Z,7.38
2022-11-29T00:11:45.047Z,7.78
2022-11-29T00:14:14.829Z,10.25
2022-11-29T00:16:41.525Z,7.63
2022-11-29T00:19:09.841Z,8.25
2022-11-29T00:21:36.615Z,7.43
2022-11-29T00:24:03.381Z,7.68
2022-11-29T00:26:29.958Z,8.82
2022-11-29T00:28:56.537Z,8.38
2022-11-29T00:31:27.382Z,7.38
2022-11-29T00:33:54.034Z,7.13
2022-11-29T00:36:20.698Z,8.32
2022-11-29T00:38:47.264Z,7.85
2022-11-29T00:41:13.927Z,7.70
2022-11-29T00:43:40.891Z,10.90
2022-11-29T00:46:08.442Z,8.38
2022-11-29T00:48:35.698Z,6.97
2022-11-29T00:51:02.956Z,8.27
2022-11-29T00:53:29.534Z,8.25
2022-11-29T00:55:56.588Z,8.20
2022-11-29T00:58:23.509Z,7.88
2022-11-29T01:00:50.218Z,7.30
2022-11-29T01:03:17.489Z,7.85
2022-11-29T01:05:44.779Z,7.53
2022-11-29T01:08:12.440Z,7.88
2022-11-29T01:10:39.137Z,7.63
2022-11-29T01:13:06.102Z,8.13
2022-11-29T01:15:33.659Z,7.65
2022-11-29T01:18:00.323Z,8.43
2022-11-29T01:20:27.334Z,8.55
2022-11-29T01:22:54.265Z,8.95
2022-11-29T01:25:20.955Z,7.50
2022-11-29T01:27:47.778Z,7.40
2022-11-29T01:30:14.843Z,7.18
2022-11-29T01:32:42.054Z,7.88
2022-11-29T01:35:09.029Z,7.03
2022-11-29T01:37:35.706Z,8.20
2022-11-29T01:40:02.557Z,7.53
2022-11-29T01:42:29.194Z,10.48
2022-11-29T01:45:03.767Z,7.13
2022-11-29T01:47:31.055Z,7.85
2022-11-29T01:49:57.968Z,8.27
2022-11-29T01:52:28.527Z,9.07
2022-11-29T01:54:58.541Z,7.38
2022-11-29T01:57:26.501Z,7.15
2022-11-29T01:59:58.319Z,7.38
2022-11-29T02:02:32.244Z,6.97
2022-11-29T02:05:01.101Z,7.55
2022-11-29T02:07:27.870Z,9.43
2022-11-29T02:09:54.524Z,8.20
2022-11-29T02:12:47.546Z,7.28
2022-11-29T02:15:28.077Z,7.15
2022-11-29T02:18:15.503Z,8.10
2022-11-29T02:21:00.440Z,7.32
2022-11-29T02:24:01.155Z,7.85
2022-11-29T02:26:44.199Z,6.97
2022-11-29T02:29:47.099Z,7.00
2022-11-29T02:32:48.903Z,7.43
2022-11-29T02:35:34.565Z,7.85
2022-11-29T02:38:35.149Z,8.65
2022-11-29T02:41:18.374Z,6.57
2022-11-29T02:44:13.284Z,7.18
2022-11-29T02:47:12.007Z,6.22
2022-11-29T02:50:17.166Z,7.35
2022-11-29T02:53:06.614Z,6.50
2022-11-29T02:56:03.049Z,7.53
2022-11-29T02:58:54.130Z,8.10
2022-11-29T03:01:30.964Z,7.30
2022-11-29T03:04:23.740Z,8.93
2022-11-29T03:07:11.223Z,6.85
2022-11-29T03:09:45.136Z,7.70
2022-11-29T03:12:30.275Z,6.05
2022-11-29T03:17:55.728Z,7.97
2022-11-29T03:20:59.878Z,7.97
2022-11-29T03:23:48.608Z,6.90
2022-11-29T03:26:21.108Z,5.82
2022-11-29T03:31:29.133Z,7.15
2022-11-29T03:34:04.402Z,5.85
2022-11-29T03:36:44.370Z,6.63
2022-11-29T03:39:18.657Z,7.22
2022-11-29T03:41:55.432Z,6.88
2022-11-29T03:44:39.925Z,7.40
2022-11-29T03:47:14.693Z,8.15
2022-11-29T03:49:52.350Z,7.05
2022-11-29T03:52:26.665Z,7.13
2022-11-29T03:55:21.067Z,6.65
2022-11-29T03:57:56.649Z,7.65
2022-11-29T04:00:24.175Z,6.60
2022-11-29T04:03:12.512Z,6.53
2022-11-29T04:06:00.594Z,6.90
2022-11-29T04:08:39.284Z,7.40
2022-11-29T04:11:37.159Z,7.95
2022-11-29T04:14:31.509Z,7.60
2022-11-29T04:17:13.946Z,8.38
2022-11-29T04:19:46.942Z,8.20
2022-11-29T04:22:27.635Z,7.85
2022-11-29T04:25:08.965Z,6.82
2022-11-29T04:28:09.386Z,7.75
2022-11-29T04:30:56.992Z,7.35
2022-11-29T04:33:40.640Z,7.32
2022-11-29T04:36:16.579Z,6.88
2022-11-29T04:39:17.310Z,9.75
2022-11-29T04:42:14.901Z,7.82
2022-11-29T04:45:20.286Z,8.13
2022-11-29T04:48:05.175Z,7.13
2022-11-29T04:50:50.359Z,8.43
2022-11-29T04:55:52.482Z,7.68
2022-11-29T04:58:46.456Z,6.85
2022-11-29T05:01:34.270Z,7.53
2022-11-29T05:04:12.706Z,8.77
2022-11-29T05:06:57.231Z,8.10
2022-11-29T05:09:50.057Z,7.70
2022-11-29T05:12:33.851Z,6.95
2022-11-29T05:15:22.241Z,7.50
2022-11-29T05:18:07.064Z,7.43
2022-11-29T05:20:55.258Z,7.38
2022-11-29T05:24:05.866Z,8.18
2022-11-29T05:26:55.123Z,6.95
2022-11-29T05:29:29.856Z,7.55
2022-11-29T05:32:02.003Z,8.07
2022-11-29T05:34:37.520Z,9.07
2022-11-29T05:37:07.169Z,7.25
2022-11-29T05:40:15.158Z,10.32
2022-11-29T05:42:50.529Z,10.23
2022-11-29T05:45:25.466Z,12.55
2022-11-29T05:48:19.714Z,11.50
2022-11-29T05:50:54.880Z,11.85
2022-11-29T05:53:28.102Z,12.85
2022-11-29T05:56:18.363Z,10.55
2022-11-29T05:59:03.501Z,10.20
2022-11-29T06:06:45.605Z,10.65
2022-11-29T06:09:29.365Z,10.88
2022-11-29T06:12:02.542Z,10.43
2022-11-29T06:15:11.699Z,9.57
2022-11-29T06:17:44.175Z,9.35
2022-11-29T06:20:48.350Z,9.27
2022-11-29T06:23:33.525Z,11.70
2022-11-29T06:28:49.164Z,10.63
2022-11-29T06:31:29.725Z,8.05
2022-11-29T06:34:07.412Z,10.40
2022-11-29T06:36:51.024Z,8.15
2022-11-29T06:39:18.018Z,8.88
2022-11-29T06:41:44.608Z,9.18
2022-11-29T06:44:11.658Z,6.88
2022-11-29T06:46:48.044Z,6.60
2022-11-29T06:49:23.707Z,9.93
2022-11-29T06:52:13.782Z,7.68
2022-11-29T06:54:52.294Z,7.85
2022-11-29T06:57:42.454Z,8.35
2022-11-29T07:00:27.036Z,9.40
2022-11-29T07:03:17.588Z,7.50
2022-11-29T07:05:44.608Z,7.53
2022-11-29T07:08:22.452Z,7.97
2022-11-29T07:10:53.214Z,8.25
2022-11-29T07:13:20.853Z,9.07
2022-11-29T07:16:17.678Z,8.18
2022-11-29T07:18:59.063Z,8.70
2022-11-29T07:21:50.822Z,7.65
2022-11-29T07:24:23.903Z,7.57
2022-11-29T07:26:59.322Z,6.60
2022-11-29T07:29:37.783Z,9.25
2022-11-29T07:32:04.308Z,6.80
2022-11-29T07:34:40.198Z,7.15
2022-11-29T07:37:17.490Z,8.45
2022-11-29T07:40:12.294Z,7.25
2022-11-29T07:43:16.612Z,8.77
2022-11-29T07:45:43.484Z,5.75
2022-11-29T07:48:12.543Z,7.55
2022-11-29T07:50:40.912Z,6.32
2022-11-29T07:53:09.392Z,7.47
2022-11-29T07:55:37.027Z,6.75
2022-11-29T07:58:03.623Z,7.30
2022-11-29T08:00:30.182Z,7.30
2022-11-29T08:02:56.769Z,8.73
2022-11-29T08:05:24.011Z,7.75
2022-11-29T08:07:50.764Z,7.38
2022-11-29T08:10:17.519Z,6.20
2022-11-29T08:12:47.731Z,5.28
2022-11-29T08:15:14.874Z,8.57
2022-11-29T08:17:41.644Z,6.82
2022-11-29T08:20:10.029Z,7.75
2022-11-29T08:22:36.691Z,5.95
2022-11-29T08:25:04.516Z,7.80
2022-11-29T08:27:31.756Z,5.90
2022-11-29T08:29:58.369Z,7.05
2022-11-29T08:32:25.870Z,5.53
2022-11-29T08:34:52.668Z,6.72
2022-11-29T08:37:19.360Z,5.80
2022-11-29T08:39:46.032Z,6.20
2022-11-29T08:42:12.637Z,6.70
2022-11-29T08:44:39.262Z,6.15
2022-11-29T08:47:24.209Z,5.78
2022-11-29T08:50:03.319Z,7.25
2022-11-29T08:52:57.021Z,8.57
2022-11-29T08:55:26.341Z,7.78
2022-11-29T08:57:54.854Z,8.70
2022-11-29T09:00:21.714Z,6.65
2022-11-29T09:02:48.913Z,6.22
2022-11-29T09:05:15.939Z,7.70
2022-11-29T09:07:43.036Z,8.20
2022-11-29T09:10:11.329Z,7.57
2022-11-29T09:12:39.744Z,10.13
2022-11-29T09:15:11.213Z,14.48
2022-11-29T09:17:37.749Z,9.93
2022-11-29T09:20:05.990Z,8.10
2022-11-29T09:22:32.622Z,8.57
2022-11-29T09:24:59.180Z,7.53
2022-11-29T09:27:25.772Z,7.03
2022-11-29T09:29:52.354Z,6.10
2022-11-29T09:32:18.925Z,7.35
2022-11-29T09:34:45.893Z,7.53
2022-11-29T09:37:12.818Z,7.00
2022-11-29T09:39:41.515Z,8.40
2022-11-29T09:42:31.273Z,9.60
2022-11-29T09:45:05.105Z,7.97
2022-11-29T09:47:52.249Z,7.63
2022-11-29T09:50:34.144Z,7.85
2022-11-29T09:53:27.321Z,6.97
2022-11-29T09:56:23.557Z,8.48
2022-11-29T09:59:29.051Z,8.48
2022-11-29T10:02:21.085Z,8.13
2022-11-29T10:04:53.612Z,7.63
2022-11-29T10:07:37.617Z,8.38
2022-11-29T10:10:37.743Z,9.25
2022-11-29T10:13:29.936Z,8.52
2022-11-29T10:16:03.152Z,11.88
2022-11-29T10:18:36.129Z,6.75
2022-11-29T10:21:12.753Z,6.25
2022-11-29T10:23:45.857Z,10.05
2022-11-29T10:26:13.284Z,8.50
2022-11-29T10:28:47.786Z,11.25
2022-11-29T10:31:19.347Z,7.32
2022-11-29T10:33:46.375Z,10.45
2022-11-29T10:36:41.613Z,7.95
2022-11-29T10:39:31.050Z,6.63
2022-11-29T10:42:01.697Z,7.43
2022-11-29T10:44:28.981Z,6.72
2022-11-29T10:46:56.191Z,5.82
2022-11-29T10:49:32.457Z,7.63
2022-11-29T10:51:59.027Z,6.38
2022-11-29T10:54:39.721Z,8.18
2022-11-29T10:57:18.105Z,9.07
2022-11-29T11:00:04.541Z,8.60
2022-11-29T11:02:31.989Z,7.80
2022-11-29T11:04:59.361Z,7.65
2022-11-29T11:07:35.115Z,9.88
2022-11-29T11:10:04.517Z,7.68
2022-11-29T11:12:33.341Z,9.57
2022-11-29T11:15:28.652Z,9.13
2022-11-29T11:18:05.060Z,10.55
2022-11-29T11:20:42.262Z,9.52
2022-11-29T11:23:28.659Z,7.72
2022-11-29T11:26:07.693Z,11.70
2022-11-29T11:28:58.018Z,7.45
2022-11-29T11:31:34.859Z,10.40
2022-11-29T11:34:23.828Z,10.82
2022-11-29T11:36:50.429Z,13.00
2022-11-29T11:39:22.392Z,7.80
2022-11-29T11:42:10.117Z,9.82
2022-11-29T11:44:47.506Z,8.52
2022-11-29T11:47:25.073Z,9.13
2022-11-29T11:49:56.114Z,9.82
2022-11-29T11:52:29.852Z,9.15
2022-11-29T11:55:03.087Z,9.23
2022-11-29T11:57:30.470Z,10.93
2022-11-29T12:00:05.020Z,13.10
2022-11-29T12:02:37.325Z,11.00
2022-11-29T12:05:11.597Z,12.80
2022-11-29T12:08:09.384Z,16.95
2022-11-29T12:10:39.922Z,14.80
2022-11-29T12:13:15.054Z,10.27
2022-11-29T12:15:45.227Z,11.75
2022-11-29T12:18:20.618Z,11.90
2022-11-29T12:21:02.077Z,10.55
2022-11-29T12:23:57.134Z,10.68
2022-11-29T12:29:19.872Z,11.75
2022-11-29T12:31:58.383Z,14.57
2022-11-29T12:34:47.711Z,17.73
2022-11-29T12:37:22.117Z,14.23
2022-11-29T12:40:20.835Z,16.35
2022-11-29T12:43:18.975Z,12.77
2022-11-29T12:45:59.057Z,14.77
2022-11-29T12:48:42.899Z,13.57
2022-11-29T12:51:18.479Z,11.75
2022-11-29T12:54:05.190Z,13.02
2022-11-29T12:57:07.411Z,30.35
2022-11-29T13:00:10.896Z,16.88
2022-11-29T13:02:58.790Z,10.57
2022-11-29T13:05:43.554Z,16.88
2022-11-29T13:08:24.045Z,8.93
2022-11-29T13:11:12.112Z,11.07
2022-11-29T13:13:46.845Z,14.63
2022-11-29T13:16:33.260Z,9.20
2022-11-29T13:19:08.094Z,13.18
2022-11-29T13:21:53.649Z,10.75
2022-11-29T13:24:42.588Z,17.83
2022-11-29T13:27:18.315Z,14.77
2022-11-29T13:29:46.148Z,14.65
2022-11-29T13:32:31.657Z,10.85
2022-11-29T13:35:03.540Z,11.05
2022-11-29T13:37:38.742Z,13.40
2022-11-29T13:40:35.529Z,12.85
2022-11-29T13:43:18.637Z,14.88
2022-11-29T13:46:07.139Z,9.77
2022-11-29T13:48:50.683Z,14.07
2022-11-29T13:51:37.591Z,11.93
2022-11-29T13:54:26.085Z,11.05
2022-11-29T13:57:07.862Z,11.15
2022-11-29T13:59:40.551Z,12.75
2022-11-29T14:02:31.307Z,10.77
2022-11-29T14:04:58.485Z,15.75
2022-11-29T14:07:25.293Z,11.15
2022-11-29T14:10:28.373Z,18.25
2022-11-29T14:12:56.897Z,12.57
2022-11-29T14:15:28.204Z,11.55
2022-11-29T14:18:36.542Z,18.85
2022-11-29T14:21:04.523Z,11.32
2022-11-29T14:23:34.269Z,13.25
2022-11-29T14:26:00.891Z,12.98
2022-11-29T14:28:33.528Z,16.92
2022-11-29T14:31:03.979Z,17.60
2022-11-29T14:33:48.447Z,18.40
2022-11-29T14:36:15.052Z,14.65
2022-11-29T14:39:03.218Z,13.38
2022-11-29T14:41:47.846Z,11.40
2022-11-29T14:44:14.626Z,12.38
2022-11-29T14:46:41.339Z,14.80
2022-11-29T14:49:21.260Z,10.93
2022-11-29T14:52:06.245Z,10.85
2022-11-29T14:57:37.888Z,15.85
2022-11-29T15:00:08.788Z,12.07
2022-11-29T15:02:47.958Z,12.23
2022-11-29T15:05:19.471Z,17.55
2022-11-29T15:07:57.135Z,16.52
2022-11-29T15:10:27.294Z,15.70
2022-11-29T15:12:54.151Z,12.68
2022-11-29T15:15:37.367Z,11.38
2022-11-29T15:18:17.628Z,12.73
2022-11-29T15:20:54.961Z,12.25
2022-11-29T15:23:21.580Z,11.00
2022-11-29T15:25:53.157Z,11.85
2022-11-29T15:28:29.137Z,14.77
2022-11-29T15:31:03.050Z,12.52
2022-11-29T15:33:29.860Z,15.32
2022-11-29T15:36:17.076Z,11.15
2022-11-29T15:38:48.351Z,10.10
2022-11-29T15:41:31.983Z,15.57
2022-11-29T15:44:01.896Z,16.38
2022-11-29T15:46:30.683Z,17.25
2022-11-29T15:49:19.345Z,12.52
2022-11-29T15:51:50.663Z,18.17
2022-11-29T15:54:20.189Z,13.18
2022-11-29T15:56:52.038Z,14.00
2022-11-29T15:59:35.175Z,15.65
2022-11-29T16:02:34.320Z,12.93
2022-11-29T16:05:14.897Z,13.23
2022-11-29T16:07:42.958Z,11.50
2022-11-29T16:10:16.619Z,15.35
2022-11-29T16:12:58.027Z,15.88
2022-11-29T16:15:30.951Z,15.82
2022-11-29T16:18:11.024Z,12.93
2022-11-29T16:20:37.697Z,15.63
2022-11-29T16:23:13.770Z,10.93
2022-11-29T16:26:01.877Z,10.27
2022-11-29T16:28:36.244Z,10.57
2022-11-29T16:31:04.850Z,10.93
2022-11-29T16:33:32.299Z,15.27
2022-11-29T16:36:26.589Z,11.52
2022-11-29T16:38:57.673Z,10.57
2022-11-29T16:41:32.326Z,10.88
2022-11-29T16:44:00.043Z,12.10
2022-11-29T16:46:30.744Z,9.57
2022-11-29T16:48:59.245Z,9.60
2022-11-29T16:51:37.456Z,11.90
2022-11-29T16:54:22.333Z,10.27
2022-11-29T16:56:52.048Z,10.20
2022-11-29T16:59:26.884Z,14.15
2022-11-29T17:01:55.544Z,10.52
2022-11-29T17:04:24.233Z,15.00
2022-11-29T17:06:56.257Z,11.60
2022-11-29T17:09:29.592Z,10.35
2022-11-29T17:11:59.820Z,11.88
2022-11-29T17:14:26.760Z,6.57
2022-11-29T17:16:53.397Z,9.07
2022-11-29T17:19:22.092Z,10.63
2022-11-29T17:21:48.771Z,13.40
2022-11-29T17:24:18.138Z,12.88
2022-11-29T17:26:45.492Z,9.50
2022-11-29T17:29:16.750Z,13.18
2022-11-29T17:31:45.162Z,11.10
2022-11-29T17:34:11.983Z,11.18
2022-11-29T17:36:38.745Z,10.40
2022-11-29T17:39:05.777Z,9.57
2022-11-29T17:41:33.110Z,9.18
2022-11-29T17:44:00.078Z,14.15
2022-11-29T17:46:29.448Z,12.85
2022-11-29T17:48:58.248Z,12.18
2022-11-29T17:54:12.036Z,11.93
2022-11-29T17:56:38.691Z,12.68
2022-11-29T17:59:05.444Z,12.50
2022-11-29T18:01:34.828Z,12.32
2022-11-29T18:04:03.683Z,10.43
2022-11-29T18:06:35.490Z,11.48
2022-11-29T18:09:06.000Z,10.13
2022-11-29T18:11:44.887Z,9.35
2022-11-29T18:14:16.121Z,9.40
2022-11-29T18:16:43.003Z,10.88
2022-11-29T18:19:12.856Z,10.13
2022-11-29T18:21:39.460Z,9.30
2022-11-29T18:24:07.267Z,10.27
2022-11-29T18:26:36.237Z,9.25
2022-11-29T18:29:03.404Z,9.30
2022-11-29T18:31:33.017Z,9.63
2022-11-29T18:34:01.981Z,9.75
2022-11-29T18:36:31.079Z,11.50
2022-11-29T18:39:07.398Z,9.95
2022-11-29T18:41:34.292Z,9.82
2022-11-29T18:44:08.255Z,9.88
2022-11-29T18:46:37.290Z,8.13
2022-11-29T18:49:06.192Z,8.63
2022-11-29T18:51:34.228Z,8.25
2022-11-29T18:54:01.509Z,9.45
2022-11-29T18:56:33.005Z,9.27
2022-11-29T18:59:04.866Z,8.02
2022-11-29T19:01:34.373Z,9.10
2022-11-29T19:04:01.881Z,7.63
2022-11-29T19:06:38.659Z,11.65
2022-11-29T19:09:07.016Z,8.27
2022-11-29T19:11:34.418Z,9.93
2022-11-29T19:14:04.013Z,6.57
2022-11-29T19:16:33.308Z,8.43
2022-11-29T19:19:01.133Z,12.55
2022-11-29T19:21:30.237Z,8.73
2022-11-29T19:23:58.845Z,11.13
2022-11-29T19:26:28.148Z,8.70
2022-11-29T19:28:55.161Z,8.68
2022-11-29T19:31:27.401Z,9.48
2022-11-29T19:33:55.682Z,8.68
2022-11-29T19:36:28.114Z,8.23
2022-11-29T19:38:54.907Z,10.60
2022-11-29T19:41:27.239Z,8.05
2022-11-29T19:43:55.980Z,11.10
2022-11-29T19:46:24.977Z,14.95
2022-11-29T19:48:56.680Z,9.68
2022-11-29T19:51:25.102Z,9.18
2022-11-29T19:53:53.510Z,9.90
2022-11-29T19:56:21.028Z,10.35
2022-11-29T19:58:47.899Z,9.38
2022-11-29T20:01:23.063Z,8.60
2022-11-29T20:03:50.033Z,8.68
2022-11-29T20:06:17.312Z,11.45
2022-11-29T20:08:43.971Z,10.27
2022-11-29T20:11:19.564Z,12.73
2022-11-29T20:13:51.457Z,8.23
2022-11-29T20:16:22.027Z,14.35
2022-11-29T20:18:51.172Z,9.55
2022-11-29T20:21:39.660Z,10.43
2022-11-29T20:24:07.819Z,9.85
2022-11-29T20:26:36.751Z,8.93
2022-11-29T20:29:04.533Z,10.60
2022-11-29T20:31:32.714Z,9.75
2022-11-29T20:33:59.839Z,11.07
2022-11-29T20:36:57.941Z,9.43
2022-11-29T20:40:09.953Z,8.18
2022-11-29T20:42:45.207Z,10.07
2022-11-29T20:45:13.711Z,12.68
2022-11-29T20:47:42.891Z,11.60
2022-11-29T20:50:22.881Z,9.45
2022-11-29T20:52:56.009Z,9.05
2022-11-29T20:55:22.748Z,9.18
2022-11-29T20:57:49.935Z,9.52
2022-11-29T21:00:16.860Z,12.82
2022-11-29T21:02:43.500Z,11.55
2022-11-29T21:05:10.366Z,9.85
2022-11-29T21:07:37.065Z,11.68
2022-11-29T21:10:04.810Z,11.13
2022-11-29T21:12:31.889Z,12.90
2022-11-29T21:14:58.941Z,9.80
2022-11-29T21:17:31.872Z,10.40
2022-11-29T21:20:00.507Z,10.40
2022-11-29T21:23:15.767Z,9.18
2022-11-29T21:26:01.758Z,8.63
2022-11-29T21:28:34.752Z,9.48
2022-11-29T21:31:01.795Z,9.90
2022-11-29T21:33:28.726Z,8.52
2022-11-29T21:35:58.021Z,11.00
2022-11-29T21:38:26.831Z,10.45
2022-11-29T21:40:53.420Z,9.27
2022-11-29T21:43:20.792Z,8.80
2022-11-29T21:45:49.338Z,8.98
2022-11-29T21:48:34.396Z,10.20
2022-11-29T21:51:07.902Z,7.43
2022-11-29T21:53:36.761Z,8.05
2022-11-29T21:56:06.293Z,11.05
2022-11-29T21:58:34.946Z,10.70
2022-11-29T22:01:19.506Z,10.40
2022-11-29T22:03:46.685Z,7.53
2022-11-29T22:06:18.254Z,8.02
2022-11-29T22:08:44.838Z,11.98
2022-11-29T22:11:14.140Z,9.90
2022-11-29T22:14:01.616Z,9.02
2022-11-29T22:16:29.770Z,10.85
2022-11-29T22:18:56.411Z,13.95
2022-11-29T22:21:22.981Z,14.38
2022-11-29T22:23:49.618Z,8.02
2022-11-29T22:26:16.192Z,14.95
2022-11-29T22:28:42.708Z,13.02
2022-11-29T22:31:11.417Z,12.32
2022-11-29T22:33:38.974Z,18.60
2022-11-29T22:36:07.409Z,14.05
2022-11-29T22:38:35.252Z,18.65
2022-11-29T22:41:04.097Z,10.05
2022-11-29T22:43:31.743Z,16.10
2022-11-29T22:46:06.544Z,12.00
2022-11-29T22:48:38.475Z,18.52
2022-11-29T22:51:11.591Z,11.82
2022-11-29T22:56:08.405Z,10.75
2022-11-29T22:58:35.095Z,12.25
2022-11-29T23:01:09.595Z,14.90
2022-11-29T23:03:38.796Z,13.25
2022-11-29T23:06:07.908Z,14.43
2022-11-29T23:08:35.521Z,14.95
2022-11-29T23:11:04.546Z,12.27
2022-11-29T23:13:36.689Z,13.48
2022-11-29T23:16:05.147Z,14.90
2022-11-29T23:18:32.179Z,15.57
2022-11-29T23:21:07.671Z,18.10
2022-11-29T23:23:35.006Z,18.20
2022-11-29T23:26:02.574Z,13.23
2022-11-29T23:28:29.738Z,10.65
2022-11-29T23:30:56.466Z,15.30
2022-11-29T23:33:23.393Z,11.30
2022-11-29T23:35:50.899Z,13.35
2022-11-29T23:38:18.398Z,13.60
2022-11-29T23:40:44.969Z,11.98
2022-11-29T23:43:11.503Z,9.98
2022-11-29T23:45:39.348Z,10.20
2022-11-29T23:48:06.181Z,10.48
2022-11-29T23:50:32.861Z,11.45
2022-11-29T23:52:59.514Z,10.38
2022-11-29T23:55:26.866Z,9.60
2022-11-29T23:57:53.423Z,10.18
